Time;durP1;ratioP1;P1;durP2;ratioP2;P2;SDS_P1;SDS_P2;PMS_P1;PMS_P2;Temp;Humidity;BMP_temperature;BMP_pressure;BME280_temperature;BME280_humidity;BME280_pressure;Samples;Min_cycle;Max_cycle;Signal;HPM_P1;HPM_P2
2023/07/03 00:01:07;;;;;;;6.70;3.17;;;;;;;;;;5091815;27;20086;-51
2023/07/03 00:03:33;;;;;;;6.93;3.63;;;;;;;;;;5092986;27;20609;-52
2023/07/03 00:06:01;;;;;;;10.02;4.32;;;;;;;;;;5092667;27;20040;-52
2023/07/03 00:08:27;;;;;;;10.60;3.75;;;;;;;;;;5092172;27;20036;-52
2023/07/03 00:11:03;;;;;;;9.48;3.15;;;;;;;;;;5092855;27;20116;-52
2023/07/03 00:13:29;;;;;;;10.48;3.33;;;;;;;;;;5097608;27;20611;-52
2023/07/03 00:16:01;;;;;;;10.18;3.95;;;;;;;;;;5090111;27;20049;-52
2023/07/03 00:18:28;;;;;;;10.88;4.43;;;;;;;;;;5088707;28;20554;-52
2023/07/03 00:20:54;;;;;;;11.25;3.60;;;;;;;;;;5091375;27;20040;-52
2023/07/03 00:23:21;;;;;;;9.27;3.60;;;;;;;;;;5092545;27;20082;-52
2023/07/03 00:25:48;;;;;;;10.55;3.72;;;;;;;;;;5091852;27;20051;-52
2023/07/03 00:28:14;;;;;;;8.88;3.33;;;;;;;;;;5092013;27;20048;-52
2023/07/03 00:30:40;;;;;;;9.82;4.18;;;;;;;;;;5088170;27;20514;-52
2023/07/03 00:33:06;;;;;;;11.93;4.95;;;;;;;;;;5092682;27;20126;-52
2023/07/03 00:35:32;;;;;;;9.98;3.70;;;;;;;;;;5092106;27;20554;-52
2023/07/03 00:37:58;;;;;;;9.55;3.70;;;;;;;;;;5091721;27;20048;-52
2023/07/03 00:40:24;;;;;;;11.38;3.92;;;;;;;;;;5097893;27;20109;-52
2023/07/03 00:42:52;;;;;;;10.10;4.38;;;;;;;;;;5091909;27;20078;-55
2023/07/03 00:45:18;;;;;;;11.63;3.38;;;;;;;;;;5091083;27;20103;-52
2023/07/03 00:47:45;;;;;;;8.95;3.55;;;;;;;;;;5091339;27;20049;-52
2023/07/03 00:50:11;;;;;;;9.95;4.35;;;;;;;;;;5091690;27;20071;-52
2023/07/03 00:52:39;;;;;;;9.73;3.85;;;;;;;;;;5092176;27;20040;-52
2023/07/03 00:55:05;;;;;;;12.18;5.97;;;;;;;;;;5090798;27;20104;-52
2023/07/03 00:57:31;;;;;;;13.02;5.32;;;;;;;;;;5091773;27;20064;-52
2023/07/03 00:59:58;;;;;;;16.58;5.30;;;;;;;;;;5092359;27;20106;-52
2023/07/03 01:02:27;;;;;;;13.27;5.50;;;;;;;;;;5091245;27;20295;-51
2023/07/03 01:05:05;;;;;;;9.88;4.85;;;;;;;;;;5091347;27;20051;-52
2023/07/03 01:07:33;;;;;;;11.55;5.22;;;;;;;;;;5090727;27;20127;-52
2023/07/03 01:10:05;;;;;;;9.98;5.22;;;;;;;;;;5079651;28;20040;-51
2023/07/03 01:12:33;;;;;;;17.02;6.20;;;;;;;;;;5092278;27;20095;-51
2023/07/03 01:15:01;;;;;;;15.13;5.03;;;;;;;;;;5079669;27;20109;-52
2023/07/03 01:17:28;;;;;;;7.82;4.50;;;;;;;;;;5091339;27;20083;-52
2023/07/03 01:19:55;;;;;;;13.02;4.95;;;;;;;;;;5089741;27;20139;-52
2023/07/03 01:22:37;;;;;;;11.02;5.40;;;;;;;;;;5096253;27;20036;-52
2023/07/03 01:25:08;;;;;;;12.32;5.03;;;;;;;;;;5090776;27;20048;-52
2023/07/03 01:27:36;;;;;;;12.13;5.65;;;;;;;;;;5090774;27;20048;-53
2023/07/03 01:30:04;;;;;;;13.05;5.38;;;;;;;;;;5092173;27;20078;-52
2023/07/03 01:32:33;;;;;;;11.18;5.60;;;;;;;;;;5090723;27;20051;-52
2023/07/03 01:34:59;;;;;;;11.68;6.57;;;;;;;;;;5090999;27;20141;-52
2023/07/03 01:37:26;;;;;;;11.35;5.95;;;;;;;;;;5090312;27;20786;-52
2023/07/03 01:39:53;;;;;;;10.43;5.20;;;;;;;;;;5091361;27;20174;-52
2023/07/03 01:42:23;;;;;;;11.82;5.43;;;;;;;;;;5089674;27;20071;-52
2023/07/03 01:44:50;;;;;;;13.68;4.70;;;;;;;;;;5090621;27;20094;-52
2023/07/03 01:47:16;;;;;;;9.48;4.50;;;;;;;;;;5090346;27;20174;-52
2023/07/03 01:49:42;;;;;;;8.57;4.57;;;;;;;;;;5091419;27;20037;-52
2023/07/03 01:52:11;;;;;;;13.93;5.60;;;;;;;;;;5090910;27;20539;-52
2023/07/03 01:54:45;;;;;;;8.85;5.00;;;;;;;;;;5090799;27;20090;-52
2023/07/03 01:57:14;;;;;;;11.18;4.93;;;;;;;;;;5090465;27;20131;-52
2023/07/03 01:59:41;;;;;;;10.48;5.43;;;;;;;;;;5091765;27;20044;-52
2023/07/03 02:02:11;;;;;;;14.77;5.45;;;;;;;;;;5091296;27;20071;-52
2023/07/03 02:05:07;;;;;;;13.45;5.85;;;;;;;;;;5095589;27;20514;-52
2023/07/03 02:07:34;;;;;;;11.18;5.40;;;;;;;;;;5078747;27;20149;-51
2023/07/03 02:10:02;;;;;;;15.05;5.53;;;;;;;;;;5079901;27;20040;-52
2023/07/03 02:12:29;;;;;;;12.00;6.22;;;;;;;;;;5090417;27;20519;-52
2023/07/03 02:14:55;;;;;;;10.52;5.38;;;;;;;;;;5091175;27;20040;-52
2023/07/03 02:17:21;;;;;;;11.48;5.28;;;;;;;;;;5089823;27;20036;-52
2023/07/03 02:19:47;;;;;;;9.38;5.68;;;;;;;;;;5090718;27;20032;-52
2023/07/03 02:22:13;;;;;;;11.40;6.28;;;;;;;;;;5090897;27;20585;-52
2023/07/03 02:24:39;;;;;;;11.90;4.40;;;;;;;;;;5090324;27;20064;-52
2023/07/03 02:27:06;;;;;;;14.60;5.57;;;;;;;;;;5090115;27;20043;-52
2023/07/03 02:29:32;;;;;;;10.85;4.53;;;;;;;;;;5089951;27;20036;-52
2023/07/03 02:31:58;;;;;;;8.90;5.55;;;;;;;;;;5078881;27;20040;-52
2023/07/03 02:34:24;;;;;;;14.90;5.63;;;;;;;;;;5089888;27;20052;-52
2023/07/03 02:36:50;;;;;;;11.45;5.18;;;;;;;;;;5086471;27;20597;-52
2023/07/03 02:39:17;;;;;;;18.70;6.03;;;;;;;;;;5089221;27;20502;-52
2023/07/03 02:41:43;;;;;;;20.10;8.18;;;;;;;;;;5090329;27;20048;-52
2023/07/03 02:44:09;;;;;;;11.50;5.72;;;;;;;;;;5091785;27;20405;-52
2023/07/03 02:46:35;;;;;;;12.45;5.72;;;;;;;;;;5093036;27;20044;-52
2023/07/03 02:49:02;;;;;;;10.63;5.13;;;;;;;;;;5093938;27;20046;-52
2023/07/03 02:51:28;;;;;;;11.68;5.18;;;;;;;;;;5090103;27;20048;-52
2023/07/03 02:53:54;;;;;;;12.32;6.00;;;;;;;;;;5089744;28;20067;-52
2023/07/03 02:56:20;;;;;;;13.02;5.45;;;;;;;;;;5093398;27;20055;-52
2023/07/03 02:58:46;;;;;;;15.18;5.65;;;;;;;;;;5093539;27;20431;-52
2023/07/03 03:01:12;;;;;;;15.32;6.32;;;;;;;;;;5093099;27;20036;-52
2023/07/03 03:03:38;;;;;;;9.10;5.00;;;;;;;;;;5098359;27;20106;-52
2023/07/03 03:06:04;;;;;;;13.23;6.00;;;;;;;;;;5094049;27;20044;-52
2023/07/03 03:08:31;;;;;;;9.25;5.15;;;;;;;;;;5093120;27;20039;-52
2023/07/03 03:10:57;;;;;;;14.02;4.97;;;;;;;;;;5093691;27;20919;-51
2023/07/03 03:13:23;;;;;;;9.98;4.65;;;;;;;;;;5082010;28;20072;-52
2023/07/03 03:15:49;;;;;;;14.50;5.15;;;;;;;;;;5093897;27;20051;-52
2023/07/03 03:18:15;;;;;;;12.32;5.68;;;;;;;;;;5098623;27;20113;-52
2023/07/03 03:20:41;;;;;;;12.65;4.88;;;;;;;;;;5093642;27;20075;-52
2023/07/03 03:23:07;;;;;;;10.65;5.00;;;;;;;;;;5093583;27;20044;-52
2023/07/03 03:25:33;;;;;;;16.05;7.43;;;;;;;;;;5092754;27;20083;-52
2023/07/03 03:27:59;;;;;;;11.45;4.60;;;;;;;;;;5092919;27;20089;-52
2023/07/03 03:30:26;;;;;;;11.60;5.32;;;;;;;;;;5093559;27;20047;-52
2023/07/03 03:32:52;;;;;;;13.75;5.93;;;;;;;;;;5081633;28;20044;-52
2023/07/03 03:35:18;;;;;;;11.95;5.03;;;;;;;;;;5093316;27;20037;-52
2023/07/03 03:37:44;;;;;;;9.02;5.00;;;;;;;;;;5092906;27;20126;-52
2023/07/03 03:40:10;;;;;;;10.15;4.68;;;;;;;;;;5093424;27;20043;-52
2023/07/03 03:42:36;;;;;;;14.68;6.57;;;;;;;;;;5092019;27;20689;-52
2023/07/03 03:45:03;;;;;;;15.38;6.15;;;;;;;;;;5092807;27;20074;-52
2023/07/03 03:47:29;;;;;;;9.68;5.32;;;;;;;;;;5092510;27;20078;-52
2023/07/03 03:49:55;;;;;;;9.82;6.10;;;;;;;;;;5098784;27;20044;-52
2023/07/03 03:52:21;;;;;;;11.50;6.30;;;;;;;;;;5097124;27;20045;-52
2023/07/03 03:54:47;;;;;;;12.73;6.65;;;;;;;;;;5092662;27;20067;-52
2023/07/03 03:57:13;;;;;;;9.60;5.70;;;;;;;;;;5092422;27;20040;-52
2023/07/03 03:59:40;;;;;;;11.68;5.63;;;;;;;;;;5092162;27;20044;-52
2023/07/03 04:02:06;;;;;;;10.98;6.28;;;;;;;;;;5092656;27;20044;-52
2023/07/03 04:04:32;;;;;;;8.13;4.53;;;;;;;;;;5092846;27;20040;-52
2023/07/03 04:06:58;;;;;;;9.60;5.18;;;;;;;;;;5092764;27;20081;-52
2023/07/03 04:09:24;;;;;;;10.38;5.30;;;;;;;;;;5092570;27;21024;-52
2023/07/03 04:11:50;;;;;;;9.45;5.72;;;;;;;;;;5092342;27;20062;-52
2023/07/03 04:14:16;;;;;;;11.55;5.47;;;;;;;;;;5088422;27;20502;-52
2023/07/03 04:16:44;;;;;;;9.30;6.07;;;;;;;;;;5091611;27;20032;-52
2023/07/03 04:19:10;;;;;;;7.93;4.90;;;;;;;;;;5092481;27;20067;-52
2023/07/03 04:21:38;;;;;;;6.50;3.10;;;;;;;;;;5092043;27;20111;-52
2023/07/03 04:24:05;;;;;;;6.65;2.75;;;;;;;;;;5092832;27;20048;-52
2023/07/03 04:26:31;;;;;;;6.80;3.03;;;;;;;;;;5097573;27;20039;-52
2023/07/03 04:28:58;;;;;;;4.90;2.40;;;;;;;;;;5091709;27;21000;-52
2023/07/03 04:31:24;;;;;;;5.35;2.88;;;;;;;;;;5092288;27;20871;-52
2023/07/03 04:33:50;;;;;;;6.15;3.25;;;;;;;;;;5092813;27;20617;-53
2023/07/03 04:36:20;;;;;;;5.50;2.50;;;;;;;;;;5080446;28;20040;-52
2023/07/03 04:38:47;;;;;;;5.55;2.80;;;;;;;;;;5092217;27;20048;-52
2023/07/03 04:41:14;;;;;;;6.18;3.38;;;;;;;;;;5092213;27;20591;-52
2023/07/03 04:43:48;;;;;;;8.65;2.25;;;;;;;;;;5091361;27;20546;-52
2023/07/03 04:46:15;;;;;;;4.78;2.38;;;;;;;;;;5091459;27;20040;-52
2023/07/03 04:48:41;;;;;;;4.03;2.63;;;;;;;;;;5091427;27;20588;-52
2023/07/03 04:51:08;;;;;;;11.77;3.17;;;;;;;;;;5091571;27;20649;-52
2023/07/03 04:53:39;;;;;;;5.22;2.35;;;;;;;;;;5092186;27;20040;-51
2023/07/03 04:56:05;;;;;;;5.17;2.47;;;;;;;;;;5092141;27;20110;-51
2023/07/03 04:58:31;;;;;;;4.00;2.75;;;;;;;;;;5091489;27;20032;-52
2023/07/03 05:00:57;;;;;;;3.90;2.30;;;;;;;;;;5092186;27;20520;-52
2023/07/03 05:03:23;;;;;;;4.63;2.45;;;;;;;;;;5092307;27;20050;-51
2023/07/03 05:05:49;;;;;;;6.30;2.88;;;;;;;;;;5092218;27;20044;-52
2023/07/03 05:08:15;;;;;;;4.25;2.42;;;;;;;;;;5090497;27;20268;-52
2023/07/03 05:10:41;;;;;;;4.10;2.53;;;;;;;;;;5092180;27;20186;-51
2023/07/03 05:13:07;;;;;;;5.70;2.95;;;;;;;;;;5091221;27;20044;-52
2023/07/03 05:15:33;;;;;;;5.75;2.97;;;;;;;;;;5092299;27;20098;-52
2023/07/03 05:17:59;;;;;;;7.07;2.97;;;;;;;;;;5091151;27;20047;-52
2023/07/03 05:20:26;;;;;;;11.65;2.95;;;;;;;;;;5091060;27;20044;-52
2023/07/03 05:22:52;;;;;;;6.55;2.65;;;;;;;;;;5091240;27;20107;-52
2023/07/03 05:25:19;;;;;;;4.68;2.30;;;;;;;;;;5091365;27;20220;-52
2023/07/03 05:27:45;;;;;;;7.30;3.00;;;;;;;;;;5096101;27;20051;-52
2023/07/03 05:30:12;;;;;;;3.90;2.08;;;;;;;;;;5090401;27;20036;-52
2023/07/03 05:32:38;;;;;;;6.55;3.15;;;;;;;;;;5091576;27;20123;-52
2023/07/03 05:35:05;;;;;;;6.03;2.97;;;;;;;;;;5091235;27;20040;-53
2023/07/03 05:37:32;;;;;;;4.40;2.63;;;;;;;;;;5090029;27;20072;-52
2023/07/03 05:39:58;;;;;;;5.68;2.85;;;;;;;;;;5091889;27;20102;-52
2023/07/03 05:42:24;;;;;;;5.68;2.88;;;;;;;;;;5091109;27;20127;-52
2023/07/03 05:44:50;;;;;;;5.28;2.30;;;;;;;;;;5092037;27;20036;-52
2023/07/03 05:47:17;;;;;;;8.02;2.45;;;;;;;;;;5091086;27;20048;-52
2023/07/03 05:49:43;;;;;;;4.75;2.75;;;;;;;;;;5090436;27;20040;-52
2023/07/03 05:52:10;;;;;;;6.82;2.97;;;;;;;;;;5091043;27;20745;-52
2023/07/03 05:54:36;;;;;;;4.03;2.55;;;;;;;;;;5091433;27;20037;-52
2023/07/03 05:57:07;;;;;;;5.47;2.53;;;;;;;;;;5090944;27;20044;-52
2023/07/03 05:59:34;;;;;;;7.45;3.80;;;;;;;;;;5090716;27;20127;-52
2023/07/03 06:02:00;;;;;;;6.30;2.65;;;;;;;;;;5090971;27;20751;-52
2023/07/03 06:04:27;;;;;;;8.15;2.65;;;;;;;;;;5090180;27;20052;-53
2023/07/03 06:06:55;;;;;;;8.60;2.75;;;;;;;;;;5091079;27;20048;-52
2023/07/03 06:09:21;;;;;;;7.85;3.28;;;;;;;;;;5090895;27;20119;-52
2023/07/03 06:11:48;;;;;;;3.88;2.33;;;;;;;;;;5090732;28;20051;-52
2023/07/03 06:14:15;;;;;;;6.03;2.90;;;;;;;;;;5090994;27;20041;-52
2023/07/03 06:16:42;;;;;;;4.25;2.47;;;;;;;;;;5090986;27;20518;-52
2023/07/03 06:19:08;;;;;;;4.20;2.78;;;;;;;;;;5090269;27;20040;-52
2023/07/03 06:21:34;;;;;;;5.68;2.65;;;;;;;;;;5079427;28;20113;-52
2023/07/03 06:24:00;;;;;;;9.23;3.25;;;;;;;;;;5090500;27;20113;-52
2023/07/03 06:26:26;;;;;;;4.80;3.05;;;;;;;;;;5090656;27;20484;-52
2023/07/03 06:28:52;;;;;;;4.78;2.50;;;;;;;;;;5089829;27;20051;-52
2023/07/03 06:31:18;;;;;;;5.50;3.13;;;;;;;;;;5089553;27;20430;-52
2023/07/03 06:33:44;;;;;;;3.50;2.35;;;;;;;;;;5079206;27;20128;-52
2023/07/03 06:36:10;;;;;;;4.13;2.33;;;;;;;;;;5090836;27;20807;-52
2023/07/03 06:38:37;;;;;;;8.18;2.50;;;;;;;;;;5090492;27;20141;-52
2023/07/03 06:41:04;;;;;;;6.07;3.20;;;;;;;;;;5089830;27;20059;-52
2023/07/03 06:43:30;;;;;;;4.00;2.58;;;;;;;;;;5090764;27;20186;-52
2023/07/03 06:45:56;;;;;;;5.05;3.00;;;;;;;;;;5090530;27;20777;-53
2023/07/03 06:48:22;;;;;;;5.53;2.45;;;;;;;;;;5089944;27;20048;-52
2023/07/03 06:50:48;;;;;;;7.15;3.13;;;;;;;;;;5090155;27;20577;-52
2023/07/03 06:53:14;;;;;;;5.00;2.50;;;;;;;;;;5091016;27;20044;-52
2023/07/03 06:55:40;;;;;;;4.20;2.70;;;;;;;;;;5089811;27;20052;-52
2023/07/03 06:58:06;;;;;;;6.95;3.33;;;;;;;;;;5090386;27;20047;-52
2023/07/03 07:00:32;;;;;;;5.78;2.85;;;;;;;;;;5090475;27;20299;-52
2023/07/03 07:02:59;;;;;;;5.53;3.08;;;;;;;;;;5089726;27;20045;-52
2023/07/03 07:05:27;;;;;;;5.03;3.63;;;;;;;;;;5090373;27;20037;-52
2023/07/03 07:07:53;;;;;;;3.50;2.20;;;;;;;;;;5090161;27;20048;-52
2023/07/03 07:10:19;;;;;;;4.90;2.28;;;;;;;;;;5089940;27;20068;-52
2023/07/03 07:12:45;;;;;;;4.00;2.60;;;;;;;;;;5090813;27;20028;-52
2023/07/03 07:15:11;;;;;;;2.88;1.92;;;;;;;;;;5090082;27;20185;-52
2023/07/03 07:17:37;;;;;;;4.15;2.00;;;;;;;;;;5090064;27;20531;-52
2023/07/03 07:20:03;;;;;;;6.25;2.50;;;;;;;;;;5089780;27;20040;-52
2023/07/03 07:22:29;;;;;;;3.65;2.20;;;;;;;;;;5090417;27;20162;-52
2023/07/03 07:24:56;;;;;;;4.35;2.50;;;;;;;;;;5089629;27;20523;-52
2023/07/03 07:27:22;;;;;;;5.43;2.92;;;;;;;;;;5090464;27;20065;-52
2023/07/03 07:29:48;;;;;;;4.55;2.20;;;;;;;;;;5094603;27;20152;-52
2023/07/03 07:32:14;;;;;;;5.88;2.85;;;;;;;;;;5092827;27;20040;-52
2023/07/03 07:34:40;;;;;;;3.75;2.30;;;;;;;;;;5098708;27;20075;-52
2023/07/03 07:37:06;;;;;;;6.68;2.42;;;;;;;;;;5093242;27;20495;-52
2023/07/03 07:39:32;;;;;;;3.67;2.17;;;;;;;;;;5093734;28;20043;-52
2023/07/03 07:41:58;;;;;;;7.30;3.30;;;;;;;;;;5093782;27;20070;-52
2023/07/03 07:44:26;;;;;;;4.45;2.42;;;;;;;;;;5092927;27;20087;-52
2023/07/03 07:46:52;;;;;;;5.78;2.13;;;;;;;;;;5092428;27;20048;-52
2023/07/03 07:49:18;;;;;;;6.38;2.33;;;;;;;;;;5093052;27;20071;-52
2023/07/03 07:51:44;;;;;;;5.47;3.08;;;;;;;;;;5092999;27;20310;-53
2023/07/03 07:54:10;;;;;;;4.03;2.58;;;;;;;;;;5092317;27;20174;-52
2023/07/03 07:56:36;;;;;;;4.25;2.30;;;;;;;;;;5092295;27;20051;-52
2023/07/03 07:59:02;;;;;;;4.55;2.60;;;;;;;;;;5093167;27;20127;-52
2023/07/03 08:01:29;;;;;;;3.53;2.47;;;;;;;;;;5092352;27;20049;-52
2023/07/03 08:03:55;;;;;;;5.00;2.80;;;;;;;;;;5092733;27;20140;-52
2023/07/03 08:06:21;;;;;;;6.07;3.17;;;;;;;;;;5091769;27;20063;-52
2023/07/03 08:08:47;;;;;;;4.72;2.35;;;;;;;;;;5092215;27;20671;-52
2023/07/03 08:11:14;;;;;;;4.68;2.55;;;;;;;;;;5092817;27;20044;-52
2023/07/03 08:13:40;;;;;;;3.47;2.15;;;;;;;;;;5092923;27;20090;-52
2023/07/03 08:16:06;;;;;;;5.45;2.85;;;;;;;;;;5092975;27;20040;-52
2023/07/03 08:18:32;;;;;;;5.32;2.55;;;;;;;;;;5091325;27;20545;-52
2023/07/03 08:20:58;;;;;;;8.98;2.70;;;;;;;;;;5092912;27;20036;-52
2023/07/03 08:23:24;;;;;;;5.68;2.13;;;;;;;;;;5092367;27;20048;-52
2023/07/03 08:25:54;;;;;;;5.45;2.45;;;;;;;;;;5092457;27;20049;-52
2023/07/03 08:28:21;;;;;;;7.43;3.42;;;;;;;;;;5092144;27;20048;-52
2023/07/03 08:30:47;;;;;;;7.88;3.10;;;;;;;;;;5091915;27;20032;-53
2023/07/03 08:33:14;;;;;;;4.82;2.90;;;;;;;;;;5092511;27;20044;-52
2023/07/03 08:35:40;;;;;;;5.47;2.95;;;;;;;;;;5092260;27;20050;-52
2023/07/03 08:38:09;;;;;;;7.03;3.28;;;;;;;;;;5091958;28;20115;-52
2023/07/03 08:40:35;;;;;;;5.18;2.65;;;;;;;;;;5091047;27;20523;-52
2023/07/03 08:43:02;;;;;;;7.28;3.15;;;;;;;;;;5091586;27;20044;-53
2023/07/03 08:45:34;;;;;;;8.68;3.10;;;;;;;;;;5091819;27;20055;-52
2023/07/03 08:48:00;;;;;;;5.35;3.10;;;;;;;;;;5092492;27;20546;-52
2023/07/03 08:50:28;;;;;;;7.32;3.20;;;;;;;;;;5096404;27;20071;-52
2023/07/03 08:52:56;;;;;;;5.68;2.80;;;;;;;;;;5092040;27;20111;-52
2023/07/03 08:55:24;;;;;;;7.43;3.65;;;;;;;;;;5091459;27;20045;-52
2023/07/03 08:57:50;;;;;;;8.43;3.22;;;;;;;;;;5092382;27;20558;-52
2023/07/03 09:00:17;;;;;;;7.15;3.40;;;;;;;;;;5091728;27;20036;-52
2023/07/03 09:02:43;;;;;;;7.90;3.72;;;;;;;;;;5091779;27;20051;-52
2023/07/03 09:05:15;;;;;;;8.45;3.50;;;;;;;;;;5088817;28;20557;-52
2023/07/03 09:07:46;;;;;;;6.28;3.13;;;;;;;;;;5092004;27;20650;-52
2023/07/03 09:10:12;;;;;;;12.30;3.70;;;;;;;;;;5092056;27;20425;-52
2023/07/03 09:12:54;;;;;;;7.35;2.80;;;;;;;;;;5091477;27;20517;-52
2023/07/03 09:15:32;;;;;;;6.38;3.72;;;;;;;;;;5091354;27;20045;-53
2023/07/03 09:18:00;;;;;;;9.30;3.95;;;;;;;;;;5092174;27;20047;-52
2023/07/03 09:20:26;;;;;;;8.40;3.80;;;;;;;;;;5096378;27;20040;-52
2023/07/03 09:22:52;;;;;;;11.35;3.95;;;;;;;;;;5091643;27;20554;-52
2023/07/03 09:25:21;;;;;;;10.95;3.05;;;;;;;;;;5091213;27;20047;-52
2023/07/03 09:27:51;;;;;;;5.80;3.55;;;;;;;;;;5091508;27;20127;-52
2023/07/03 09:30:17;;;;;;;7.18;3.22;;;;;;;;;;5091597;27;21526;-52
2023/07/03 09:32:43;;;;;;;6.93;2.97;;;;;;;;;;5091322;27;20045;-52
2023/07/03 09:35:20;;;;;;;10.52;3.78;;;;;;;;;;5091855;27;20114;-52
2023/07/03 09:37:47;;;;;;;6.70;3.00;;;;;;;;;;5090845;27;20507;-52
2023/07/03 09:40:24;;;;;;;7.47;3.50;;;;;;;;;;5086960;27;20461;-52
2023/07/03 09:42:50;;;;;;;7.32;2.85;;;;;;;;;;5091223;27;20534;-52
2023/07/03 09:45:20;;;;;;;12.50;3.53;;;;;;;;;;5090276;27;20071;-52
2023/07/03 09:47:47;;;;;;;10.48;4.07;;;;;;;;;;5090193;27;20044;-52
2023/07/03 09:50:13;;;;;;;7.07;3.42;;;;;;;;;;5091209;27;20414;-52
2023/07/03 09:52:43;;;;;;;7.70;3.60;;;;;;;;;;5079533;28;20040;-53
2023/07/03 09:55:09;;;;;;;6.78;3.38;;;;;;;;;;5091089;27;20044;-53
2023/07/03 09:57:35;;;;;;;7.57;3.22;;;;;;;;;;5091086;27;20127;-52
2023/07/03 10:00:14;;;;;;;15.25;3.92;;;;;;;;;;5091220;27;20041;-52
2023/07/03 10:02:44;;;;;;;5.03;2.38;;;;;;;;;;5091679;27;20051;-52
2023/07/03 10:05:17;;;;;;;10.15;4.15;;;;;;;;;;5090924;27;20106;-53
2023/07/03 10:07:45;;;;;;;11.93;3.85;;;;;;;;;;5091427;27;20492;-52
2023/07/03 10:10:17;;;;;;;10.23;4.50;;;;;;;;;;5090837;27;20035;-52
2023/07/03 10:12:46;;;;;;;6.68;3.67;;;;;;;;;;5090606;27;20131;-52
2023/07/03 10:15:18;;;;;;;5.50;2.63;;;;;;;;;;5091193;27;20036;-52
2023/07/03 10:17:49;;;;;;;5.63;3.15;;;;;;;;;;5089895;27;20040;-52
2023/07/03 10:20:23;;;;;;;9.57;3.05;;;;;;;;;;5090140;27;20036;-52
2023/07/03 10:22:50;;;;;;;7.30;3.05;;;;;;;;;;5090906;27;20119;-52
2023/07/03 10:25:19;;;;;;;8.13;3.78;;;;;;;;;;5090485;27;20539;-52
2023/07/03 10:27:46;;;;;;;7.70;3.53;;;;;;;;;;5090196;27;20127;-52
2023/07/03 10:30:15;;;;;;;7.85;4.10;;;;;;;;;;5091029;27;20040;-52
2023/07/03 10:32:44;;;;;;;11.10;3.53;;;;;;;;;;5090121;27;20117;-52
2023/07/03 10:35:14;;;;;;;9.02;2.83;;;;;;;;;;5091002;27;20076;-52
2023/07/03 10:37:48;;;;;;;10.27;2.60;;;;;;;;;;5095218;27;20044;-52
2023/07/03 10:40:23;;;;;;;9.07;3.20;;;;;;;;;;5090264;27;20263;-53
2023/07/03 10:42:51;;;;;;;7.32;2.80;;;;;;;;;;5090812;27;20141;-53
2023/07/03 10:45:17;;;;;;;9.40;2.65;;;;;;;;;;5089672;27;20083;-52
2023/07/03 10:47:53;;;;;;;6.00;2.55;;;;;;;;;;5089493;27;20048;-52
2023/07/03 10:50:21;;;;;;;9.25;3.70;;;;;;;;;;5090225;27;20047;-52
2023/07/03 10:53:10;;;;;;;6.13;2.83;;;;;;;;;;5091228;27;20044;-52
2023/07/03 10:55:43;;;;;;;7.95;3.35;;;;;;;;;;5089903;27;20083;-53
2023/07/03 10:58:15;;;;;;;11.15;3.47;;;;;;;;;;5090236;27;20040;-52
2023/07/03 11:00:56;;;;;;;13.65;3.78;;;;;;;;;;5090112;27;20043;-53
2023/07/03 11:03:46;;;;;;;6.85;3.10;;;;;;;;;;5089567;27;20060;-52
2023/07/03 11:06:16;;;;;;;8.32;3.53;;;;;;;;;;5093767;27;20049;-52
2023/07/03 11:09:03;;;;;;;5.93;2.40;;;;;;;;;;5098094;27;20040;-52
2023/07/03 11:11:40;;;;;;;8.77;2.70;;;;;;;;;;5093892;27;20547;-52
2023/07/03 11:14:15;;;;;;;9.65;2.50;;;;;;;;;;5093568;27;20044;-52
2023/07/03 11:17:02;;;;;;;9.27;2.65;;;;;;;;;;5093063;27;20131;-52
2023/07/03 11:19:33;;;;;;;6.03;1.95;;;;;;;;;;5078734;27;20048;-52
2023/07/03 11:22:06;;;;;;;6.22;2.50;;;;;;;;;;5093378;27;20120;-52
2023/07/03 11:24:33;;;;;;;9.32;2.42;;;;;;;;;;5093545;27;20048;-52
2023/07/03 11:27:03;;;;;;;9.35;3.13;;;;;;;;;;5093030;27;20174;-52
2023/07/03 11:29:29;;;;;;;6.47;2.17;;;;;;;;;;5092396;27;20088;-52
2023/07/03 11:31:56;;;;;;;6.03;1.95;;;;;;;;;;5092573;27;20083;-52
2023/07/03 11:34:23;;;;;;;8.20;3.40;;;;;;;;;;5082021;28;20040;-52
2023/07/03 11:36:50;;;;;;;5.78;2.45;;;;;;;;;;5093001;27;20036;-52
2023/07/03 11:39:21;;;;;;;7.07;2.65;;;;;;;;;;5093199;27;20040;-52
2023/07/03 11:41:49;;;;;;;7.63;2.65;;;;;;;;;;5093946;27;20559;-52
2023/07/03 11:44:19;;;;;;;7.88;2.72;;;;;;;;;;5093200;27;20044;-52
2023/07/03 11:46:51;;;;;;;10.93;2.20;;;;;;;;;;5097103;27;20535;-52
2023/07/03 11:49:17;;;;;;;8.63;2.40;;;;;;;;;;5093173;27;20135;-52
2023/07/03 11:51:43;;;;;;;8.10;2.08;;;;;;;;;;5092451;27;20040;-52
2023/07/03 11:54:22;;;;;;;8.27;2.13;;;;;;;;;;5092475;27;20085;-52
2023/07/03 11:56:59;;;;;;;6.63;2.15;;;;;;;;;;5092235;27;20506;-52
2023/07/03 11:59:30;;;;;;;5.00;2.30;;;;;;;;;;5092704;27;20045;-53
2023/07/03 12:02:11;;;;;;;8.40;2.03;;;;;;;;;;5092909;27;20110;-52
2023/07/03 12:04:44;;;;;;;9.60;3.13;;;;;;;;;;5098810;27;21283;-52
2023/07/03 12:07:11;;;;;;;9.15;3.20;;;;;;;;;;5092736;27;20494;-52
2023/07/03 12:09:37;;;;;;;7.90;2.85;;;;;;;;;;5092821;27;20868;-52
2023/07/03 12:12:03;;;;;;;7.65;2.53;;;;;;;;;;5093036;27;20040;-52
2023/07/03 12:14:54;;;;;;;7.45;2.40;;;;;;;;;;5092436;27;20101;-52
2023/07/03 12:17:30;;;;;;;8.90;2.58;;;;;;;;;;5091981;27;20055;-52
2023/07/03 12:19:57;;;;;;;6.78;2.85;;;;;;;;;;5092789;27;20044;-52
2023/07/03 12:22:28;;;;;;;6.25;2.20;;;;;;;;;;5092758;27;20089;-52
2023/07/03 12:25:04;;;;;;;5.57;2.28;;;;;;;;;;5092514;27;20254;-52
2023/07/03 12:27:31;;;;;;;4.25;2.75;;;;;;;;;;5092131;27;20045;-52
2023/07/03 12:29:57;;;;;;;8.85;3.00;;;;;;;;;;5092825;27;20165;-52
2023/07/03 12:32:28;;;;;;;9.93;3.92;;;;;;;;;;5091821;27;20423;-52
2023/07/03 12:34:54;;;;;;;6.82;2.38;;;;;;;;;;5091774;27;20509;-52
2023/07/03 12:37:24;;;;;;;9.98;3.08;;;;;;;;;;5091685;27;20045;-52
2023/07/03 12:39:50;;;;;;;5.97;3.05;;;;;;;;;;5092390;27;20047;-52
2023/07/03 12:42:22;;;;;;;10.30;3.58;;;;;;;;;;5092042;27;20043;-52
2023/07/03 12:44:48;;;;;;;8.60;3.60;;;;;;;;;;5092747;27;20563;-52
2023/07/03 12:47:18;;;;;;;6.50;3.25;;;;;;;;;;5073914;28;20048;-52
2023/07/03 12:49:59;;;;;;;8.23;2.15;;;;;;;;;;5092265;27;20531;-52
2023/07/03 12:52:30;;;;;;;6.93;2.42;;;;;;;;;;5090707;27;20040;-52
2023/07/03 12:54:56;;;;;;;5.43;2.40;;;;;;;;;;5091105;27;20050;-53
2023/07/03 12:57:22;;;;;;;4.97;2.53;;;;;;;;;;5091721;27;20256;-52
2023/07/03 12:59:51;;;;;;;8.60;2.65;;;;;;;;;;5091522;27;20051;-52
2023/07/03 13:02:24;;;;;;;5.45;2.58;;;;;;;;;;5091985;27;20075;-52
2023/07/03 13:04:56;;;;;;;6.20;2.08;;;;;;;;;;5091304;27;20044;-52
2023/07/03 13:07:22;;;;;;;6.53;2.42;;;;;;;;;;5089880;27;20128;-52
2023/07/03 13:09:48;;;;;;;6.60;2.80;;;;;;;;;;5088999;27;20043;-52
2023/07/03 13:12:18;;;;;;;7.15;3.45;;;;;;;;;;5089217;27;20040;-52
2023/07/03 13:14:58;;;;;;;5.68;2.47;;;;;;;;;;5089269;27;20122;-52
2023/07/03 13:17:28;;;;;;;7.18;2.10;;;;;;;;;;5076289;27;20075;-52
2023/07/03 13:19:54;;;;;;;10.15;2.58;;;;;;;;;;5090283;27;20464;-52
2023/07/03 13:22:21;;;;;;;7.03;2.55;;;;;;;;;;5090359;27;20135;-52
2023/07/03 13:24:48;;;;;;;7.43;2.42;;;;;;;;;;5089799;27;20047;-52
2023/07/03 13:27:25;;;;;;;10.18;3.08;;;;;;;;;;5089356;27;20450;-52
2023/07/03 13:29:57;;;;;;;10.27;2.97;;;;;;;;;;5087869;27;20047;-52
2023/07/03 13:32:25;;;;;;;5.70;2.10;;;;;;;;;;5088929;27;20128;-52
2023/07/03 13:34:54;;;;;;;8.93;3.05;;;;;;;;;;5088676;27;20040;-52
2023/07/03 13:37:27;;;;;;;9.23;3.08;;;;;;;;;;5087812;27;20517;-52
2023/07/03 13:39:53;;;;;;;9.60;2.55;;;;;;;;;;5088958;27;20044;-52
2023/07/03 13:42:20;;;;;;;8.65;2.70;;;;;;;;;;5086880;27;20562;-52
2023/07/03 13:44:46;;;;;;;6.68;2.75;;;;;;;;;;5089156;27;20432;-52
2023/07/03 13:47:12;;;;;;;7.57;3.40;;;;;;;;;;5088486;27;20049;-52
2023/07/03 13:49:38;;;;;;;15.20;4.10;;;;;;;;;;5088005;27;20047;-53
2023/07/03 13:52:04;;;;;;;5.53;2.75;;;;;;;;;;5088813;27;20031;-52
2023/07/03 13:54:32;;;;;;;6.45;2.78;;;;;;;;;;5088801;27;20056;-52
2023/07/03 13:56:58;;;;;;;7.07;2.65;;;;;;;;;;5086315;27;20799;-52
2023/07/03 13:59:24;;;;;;;8.80;3.03;;;;;;;;;;5085287;27;20156;-52
2023/07/03 14:01:50;;;;;;;7.65;2.88;;;;;;;;;;5087886;27;20054;-52
2023/07/03 14:04:16;;;;;;;8.13;2.20;;;;;;;;;;5087922;27;20032;-52
2023/07/03 14:06:42;;;;;;;7.85;2.28;;;;;;;;;;5088173;27;20543;-52
2023/07/03 14:09:09;;;;;;;9.40;3.33;;;;;;;;;;5084475;27;20127;-52
2023/07/03 14:11:36;;;;;;;8.35;3.45;;;;;;;;;;5088124;27;20048;-53
2023/07/03 14:14:02;;;;;;;10.52;2.55;;;;;;;;;;5088290;27;20044;-52
2023/07/03 14:16:28;;;;;;;7.70;3.60;;;;;;;;;;5089077;27;20099;-52
2023/07/03 14:18:55;;;;;;;6.80;2.53;;;;;;;;;;5089986;27;20172;-52
2023/07/03 14:21:22;;;;;;;10.63;2.55;;;;;;;;;;5089674;27;20052;-52
2023/07/03 14:23:48;;;;;;;7.13;3.10;;;;;;;;;;5088863;27;20249;-52
2023/07/03 14:26:14;;;;;;;5.63;2.60;;;;;;;;;;5090480;27;20044;-52
2023/07/03 14:28:41;;;;;;;5.63;2.58;;;;;;;;;;5090025;27;20514;-52
2023/07/03 14:31:11;;;;;;;5.40;2.45;;;;;;;;;;5084257;28;20044;-52
2023/07/03 14:33:37;;;;;;;6.60;2.30;;;;;;;;;;5088870;27;20452;-52
2023/07/03 14:36:04;;;;;;;9.70;2.97;;;;;;;;;;5089131;27;20051;-52
2023/07/03 14:38:30;;;;;;;7.97;3.00;;;;;;;;;;5085455;27;20044;-52
2023/07/03 14:40:57;;;;;;;10.25;2.80;;;;;;;;;;5089219;27;20064;-52
2023/07/03 14:43:23;;;;;;;7.55;3.78;;;;;;;;;;5089330;27;20040;-52